createdAt,value
2022-12-18T00:01:08.777Z,66991.44
2022-12-18T00:03:36.679Z,66987.03
2022-12-18T00:06:03.595Z,66945.25
2022-12-18T00:08:30.179Z,66981.13
2022-12-18T00:11:03.913Z,66981.53
2022-12-18T00:13:34.169Z,66980.75
2022-12-18T00:16:06.357Z,66967.78
2022-12-18T00:18:33.519Z,66976.94
2022-12-18T00:21:02.504Z,66990.69
2022-12-18T00:23:30.600Z,66931.34
2022-12-18T00:26:05.264Z,66985.72
2022-12-18T00:28:31.995Z,66942.97
2022-12-18T00:31:04.384Z,66946.06
2022-12-18T00:33:31.615Z,66976.94
2022-12-18T00:36:04.576Z,66969.50
2022-12-18T00:38:32.974Z,66974.28
2022-12-18T00:40:59.699Z,66968.19
2022-12-18T00:43:27.447Z,66958.84
2022-12-18T00:45:54.502Z,66957.91
2022-12-18T00:48:21.306Z,66932.31
2022-12-18T00:50:50.262Z,66972.75
2022-12-18T00:53:17.319Z,66971.25
2022-12-18T00:55:44.605Z,66977.34
2022-12-18T00:58:12.708Z,66946.06
2022-12-18T01:00:39.643Z,66961.53
2022-12-18T01:03:06.932Z,66965.91
2022-12-18T01:05:33.851Z,66956.56
2022-12-18T01:08:00.980Z,66904.84
2022-12-18T01:10:27.608Z,66940.72
2022-12-18T01:12:57.897Z,66934.22
2022-12-18T01:15:24.565Z,67022.19
2022-12-18T01:17:54.233Z,66933.66
2022-12-18T01:20:21.422Z,66925.66
2022-12-18T01:22:47.979Z,66952.94
2022-12-18T01:25:14.750Z,66959.81
2022-12-18T01:27:41.364Z,66931.38
2022-12-18T01:30:08.430Z,66926.59
2022-12-18T01:32:35.110Z,66957.50
2022-12-18T01:35:02.565Z,66928.72
2022-12-18T01:37:29.183Z,66945.69
2022-12-18T01:39:56.501Z,66935.00
2022-12-18T01:42:23.112Z,66987.25
2022-12-18T01:45:06.894Z,66987.25
2022-12-18T01:47:36.499Z,66912.50
2022-12-18T01:50:08.699Z,66929.47
2022-12-18T01:52:41.884Z,66905.44
2022-12-18T01:55:10.354Z,66926.25
2022-12-18T01:57:38.975Z,66915.94
2022-12-18T02:00:18.613Z,66950.28
2022-12-18T02:02:47.329Z,66947.97
2022-12-18T02:05:18.802Z,66967.81
2022-12-18T02:08:15.235Z,66970.47
2022-12-18T02:11:05.624Z,66966.09
2022-12-18T02:13:35.931Z,66935.00
2022-12-18T02:16:23.015Z,66943.03
2022-12-18T02:18:55.429Z,66921.66
2022-12-18T02:21:25.494Z,66946.66
2022-12-18T02:24:11.094Z,66950.28
2022-12-18T02:26:51.294Z,66944.94
2022-12-18T02:29:32.571Z,66958.69
2022-12-18T02:32:05.599Z,66923.56
2022-12-18T02:34:37.122Z,66947.41
2022-12-18T02:37:12.554Z,66915.97
2022-12-18T02:39:42.843Z,66905.28
2022-12-18T02:42:12.820Z,66901.84
2022-12-18T02:44:49.264Z,66949.72
2022-12-18T02:47:23.450Z,66911.78
2022-12-18T02:49:59.265Z,66897.25
2022-12-18T02:52:35.990Z,66894.78
2022-12-18T02:55:23.291Z,66894.78
2022-12-18T02:58:07.995Z,66931.03
2022-12-18T03:00:42.540Z,66911.78
2022-12-18T03:03:17.733Z,66931.41
2022-12-18T03:06:05.851Z,66912.56
2022-12-18T03:08:40.241Z,66911.97
2022-12-18T03:11:12.634Z,66938.66
2022-12-18T03:13:42.922Z,66916.94
2022-12-18T03:16:18.878Z,66909.31
2022-12-18T03:19:07.766Z,66914.81
2022-12-18T03:22:03.189Z,66940.75
2022-12-18T03:24:40.546Z,66919.41
2022-12-18T03:27:14.884Z,66934.47
2022-12-18T03:29:50.029Z,66902.63
2022-12-18T03:32:27.250Z,66916.38
2022-12-18T03:34:59.470Z,66911.41
2022-12-18T03:37:34.068Z,66879.97
2022-12-18T03:40:00.862Z,66878.25
2022-12-18T03:42:46.669Z,66899.19
2022-12-18T03:45:20.128Z,66895.78
2022-12-18T03:48:30.088Z,66901.88
2022-12-18T03:51:07.018Z,66889.47
2022-12-18T03:53:58.787Z,66919.41
2022-12-18T03:56:34.474Z,66906.44
2022-12-18T03:59:04.039Z,66909.31
2022-12-18T04:01:40.061Z,66871.41
2022-12-18T04:04:09.609Z,66919.03
2022-12-18T04:06:39.708Z,66918.47
2022-12-18T04:09:08.701Z,66967.66
2022-12-18T04:11:41.769Z,66874.63
2022-12-18T04:14:09.914Z,66890.44
2022-12-18T04:16:38.760Z,66901.13
2022-12-18T04:19:09.284Z,66952.78
2022-12-18T04:21:40.129Z,66882.81
2022-12-18T04:24:07.705Z,66895.03
2022-12-18T04:26:36.495Z,66872.94
2022-12-18T04:29:16.361Z,66879.41
2022-12-18T04:31:43.066Z,66952.41
2022-12-18T04:34:10.184Z,66898.47
2022-12-18T04:36:42.881Z,66891.63
2022-12-18T04:39:09.732Z,66856.53
2022-12-18T04:41:36.475Z,66906.09
2022-12-18T04:44:04.421Z,66892.19
2022-12-18T04:46:31.195Z,66933.53
2022-12-18T04:48:57.850Z,66850.25
2022-12-18T04:51:26.627Z,66904.19
2022-12-18T04:53:54.204Z,66917.53
2022-12-18T04:56:20.917Z,66855.78
2022-12-18T04:58:47.683Z,66881.91
2022-12-18T05:01:16.927Z,66913.34
2022-12-18T05:03:44.392Z,66851.22
2022-12-18T05:06:11.674Z,66898.09
2022-12-18T05:08:38.407Z,66844.38
2022-12-18T05:11:10.672Z,66827.22
2022-12-18T05:13:39.220Z,66833.34
2022-12-18T05:16:07.373Z,66867.63
2022-12-18T05:18:34.834Z,66878.69
2022-12-18T05:21:01.927Z,66826.88
2022-12-18T05:23:29.261Z,66859.06
2022-12-18T05:26:04.652Z,66845.16
2022-12-18T05:28:32.994Z,66839.06
2022-12-18T05:31:01.767Z,66823.06
2022-12-18T05:33:32.040Z,66869.94
2022-12-18T05:36:03.472Z,66865.53
2022-12-18T05:38:32.019Z,66862.31
2022-12-18T05:40:59.116Z,66851.81
2022-12-18T05:43:26.830Z,66857.75
2022-12-18T05:45:54.557Z,66905.53
2022-12-18T05:48:22.234Z,66871.06
2022-12-18T05:50:50.690Z,66837.16
2022-12-18T05:53:20.372Z,66830.50
2022-12-18T05:55:47.766Z,66833.38
2022-12-18T05:58:15.527Z,66854.69
2022-12-18T06:00:45.633Z,66821.19
2022-12-18T06:03:13.614Z,66826.88
2022-12-18T06:05:43.222Z,66833.00
2022-12-18T06:08:10.522Z,66810.53
2022-12-18T06:10:37.943Z,66811.09
2022-12-18T06:13:04.963Z,66804.03
2022-12-18T06:15:31.648Z,66796.03
2022-12-18T06:17:58.862Z,66879.44
2022-12-18T06:20:30.408Z,66843.25
2022-12-18T06:22:59.832Z,66795.47
2022-12-18T06:25:26.440Z,66826.91
2022-12-18T06:27:53.126Z,66845.34
2022-12-18T06:30:20.245Z,66792.63
2022-12-18T06:32:50.506Z,66795.69
2022-12-18T06:35:19.728Z,66752.47
2022-12-18T06:37:47.987Z,66764.09
2022-12-18T06:40:14.586Z,66798.72
2022-12-18T06:42:41.235Z,66855.66
2022-12-18T06:45:08.766Z,66789.97
2022-12-18T06:47:35.491Z,66801.97
2022-12-18T06:50:02.189Z,66762.56
2022-12-18T06:52:28.838Z,66796.09
2022-12-18T06:54:55.581Z,66826.53
2022-12-18T06:57:22.313Z,66810.91
2022-12-18T06:59:48.966Z,66812.44
2022-12-18T07:02:16.043Z,66809.19
2022-12-18T07:04:42.851Z,66783.50
2022-12-18T07:07:09.433Z,66802.16
2022-12-18T07:09:36.229Z,66772.09
2022-12-18T07:12:02.928Z,66780.84
2022-12-18T07:14:29.686Z,66817.38
2022-12-18T07:16:56.750Z,66796.84
2022-12-18T07:19:26.653Z,66882.88
2022-12-18T07:21:53.392Z,66987.72
2022-12-18T07:24:20.148Z,67177.25
2022-12-18T07:26:47.804Z,67296.22
2022-12-18T07:29:14.379Z,67493.41
2022-12-18T07:31:41.108Z,67613.09
2022-12-18T07:34:12.775Z,67711.13
2022-12-18T07:36:39.994Z,67665.81
2022-12-18T07:39:06.821Z,67594.25
2022-12-18T07:41:33.462Z,67710.91
2022-12-18T07:44:11.614Z,67927.66
2022-12-18T07:46:38.517Z,67865.44
2022-12-18T07:49:05.409Z,67939.47
2022-12-18T07:51:32.164Z,68211.28
2022-12-18T07:53:58.978Z,68550.34
2022-12-18T07:56:27.694Z,68712.34
2022-12-18T07:58:55.704Z,68590.59
2022-12-18T08:01:22.524Z,68459.97
2022-12-18T08:03:49.918Z,68792.25
2022-12-18T08:06:19.131Z,69165.16
2022-12-18T08:08:45.816Z,69211.34
2022-12-18T08:11:12.517Z,69337.53
2022-12-18T08:13:39.577Z,69294.59
2022-12-18T08:16:08.345Z,69315.03
2022-12-18T08:18:37.528Z,69314.13
2022-12-18T08:21:25.019Z,69326.88
2022-12-18T08:23:53.407Z,69367.47
2022-12-18T08:26:20.853Z,69440.34
2022-12-18T08:28:48.489Z,69561.50
2022-12-18T08:31:16.173Z,69567.47
2022-12-18T08:33:43.723Z,69444.19
2022-12-18T08:36:11.676Z,69100.44
2022-12-18T08:38:38.880Z,68705.41
2022-12-18T08:41:11.938Z,68421.75
2022-12-18T08:43:57.615Z,67771.19
2022-12-18T08:46:26.291Z,67693.22
2022-12-18T08:48:54.424Z,66798.09
2022-12-18T08:51:21.760Z,66126.81
2022-12-18T08:53:48.727Z,64810.47
2022-12-18T08:56:16.683Z,65056.53
2022-12-18T08:58:44.449Z,67665.19
2022-12-18T09:01:13.263Z,68551.84
2022-12-18T09:03:41.431Z,68635.38
2022-12-18T09:06:09.504Z,68701.56
2022-12-18T09:08:38.033Z,68618.56
2022-12-18T09:11:05.426Z,68581.78
2022-12-18T09:13:32.305Z,68759.47
2022-12-18T09:15:59.582Z,68805.19
2022-12-18T09:18:26.367Z,68879.59
2022-12-18T09:20:54.217Z,68892.03
2022-12-18T09:23:22.580Z,68826.78
2022-12-18T09:25:49.509Z,68724.13
2022-12-18T09:28:19.290Z,68662.97
2022-12-18T09:30:51.186Z,68593.81
2022-12-18T09:33:18.688Z,68621.34
2022-12-18T09:35:47.463Z,68795.75
2022-12-18T09:38:16.889Z,68916.25
2022-12-18T09:40:57.003Z,69058.63
2022-12-18T09:43:35.032Z,69126.56
2022-12-18T09:46:08.042Z,69196.00
2022-12-18T09:48:43.228Z,69331.28
2022-12-18T09:51:19.527Z,69341.09
2022-12-18T09:53:52.863Z,69404.00
2022-12-18T09:56:23.782Z,69456.81
2022-12-18T09:58:54.880Z,69514.97
2022-12-18T10:01:25.326Z,69490.66
2022-12-18T10:03:54.513Z,69502.81
2022-12-18T10:06:21.267Z,69518.25
2022-12-18T10:09:11.538Z,69515.56
2022-12-18T10:12:13.783Z,69511.13
2022-12-18T10:15:03.397Z,69514.97
2022-12-18T10:17:49.988Z,69581.47
2022-12-18T10:20:45.279Z,69536.34
2022-12-18T10:23:15.027Z,69478.16
2022-12-18T10:25:44.319Z,69468.91
2022-12-18T10:28:15.016Z,69385.78
2022-12-18T10:30:43.449Z,69378.34
2022-12-18T10:33:21.988Z,69358.44
2022-12-18T10:35:54.018Z,69324.31
2022-12-18T10:38:30.701Z,69302.31
2022-12-18T10:41:06.146Z,69356.38
2022-12-18T10:43:38.724Z,69411.59
2022-12-18T10:46:11.250Z,69481.97
2022-12-18T10:48:42.235Z,69518.47
2022-12-18T10:51:12.161Z,69596.88
2022-12-18T10:53:43.145Z,69587.97
2022-12-18T10:56:10.373Z,69580.22
2022-12-18T10:58:39.707Z,69532.72
2022-12-18T11:01:14.366Z,69493.50
2022-12-18T11:03:47.682Z,69410.34
2022-12-18T11:06:20.249Z,69413.88
2022-12-18T11:09:19.811Z,69378.50
2022-12-18T11:11:53.370Z,69392.75
2022-12-18T11:14:35.196Z,69314.03
2022-12-18T11:17:24.971Z,69232.91
2022-12-18T11:19:57.764Z,69095.31
2022-12-18T11:22:28.852Z,68991.31
2022-12-18T11:25:33.383Z,68968.09
2022-12-18T11:28:03.438Z,69022.44
2022-12-18T11:30:36.238Z,69138.59
2022-12-18T11:33:22.975Z,69217.03
2022-12-18T11:35:54.623Z,69340.06
2022-12-18T11:38:21.472Z,69433.03
2022-12-18T11:40:57.472Z,69602.16
2022-12-18T11:43:38.090Z,69710.94
2022-12-18T11:46:19.373Z,69698.44
2022-12-18T11:48:59.281Z,69693.38
2022-12-18T11:51:49.565Z,69712.72
2022-12-18T11:54:17.075Z,69657.72
2022-12-18T11:57:15.967Z,69584.59
2022-12-18T12:00:02.039Z,69534.09
2022-12-18T12:03:04.068Z,69445.19
2022-12-18T12:05:49.172Z,69418.13
2022-12-18T12:08:18.846Z,69454.69
2022-12-18T12:10:51.474Z,69451.41
2022-12-18T12:13:36.710Z,69420.75
2022-12-18T12:16:15.698Z,69294.06
2022-12-18T12:19:11.539Z,69148.34
2022-12-18T12:21:54.728Z,69073.69
2022-12-18T12:24:27.056Z,69024.63
2022-12-18T12:27:00.770Z,69016.31
2022-12-18T12:29:52.762Z,69088.22
2022-12-18T12:32:26.367Z,69145.31
2022-12-18T12:35:20.908Z,69284.44
2022-12-18T12:38:16.990Z,69403.97
2022-12-18T12:40:58.582Z,69525.00
2022-12-18T12:43:46.116Z,69581.81
2022-12-18T12:46:33.634Z,69609.19
2022-12-18T12:49:04.947Z,69583.59
2022-12-18T12:51:41.828Z,69563.94
2022-12-18T12:54:18.496Z,69604.41
2022-12-18T12:57:06.975Z,69648.72
2022-12-18T12:59:41.129Z,69698.41
2022-12-18T13:02:45.475Z,69680.25
2022-12-18T13:05:18.947Z,69699.59
2022-12-18T13:07:51.316Z,69687.09
2022-12-18T13:10:19.043Z,69745.38
2022-12-18T13:12:56.735Z,69693.63
2022-12-18T13:15:33.564Z,69735.28
2022-12-18T13:18:26.727Z,69757.28
2022-12-18T13:21:02.975Z,69736.47
2022-12-18T13:23:40.796Z,69768.00
2022-12-18T13:26:08.653Z,69703.78
2022-12-18T13:28:47.085Z,69748.38
2022-12-18T13:31:32.915Z,69754.91
2022-12-18T13:34:27.853Z,69713.59
2022-12-18T13:36:58.310Z,69669.88
2022-12-18T13:39:35.260Z,69660.06
2022-12-18T13:42:05.873Z,69677.00
2022-12-18T13:47:38.490Z,69558.34
2022-12-18T13:50:23.725Z,69544.97
2022-12-18T13:52:52.111Z,69625.25
2022-12-18T13:55:21.745Z,69608.91
2022-12-18T13:57:48.447Z,69566.94
2022-12-18T14:00:29.670Z,69504.81
2022-12-18T14:02:58.483Z,69437.59
2022-12-18T14:05:30.782Z,69381.41
2022-12-18T14:08:07.762Z,69321.94
2022-12-18T14:10:48.586Z,69402.22
2022-12-18T14:13:28.982Z,69336.81
2022-12-18T14:15:57.389Z,69253.84
2022-12-18T14:18:32.110Z,69143.22
2022-12-18T14:21:01.243Z,69081.09
2022-12-18T14:23:41.250Z,68990.09
2022-12-18T14:26:26.380Z,68829.88
2022-12-18T14:28:54.829Z,68714.81
2022-12-18T14:31:24.424Z,68557.28
2022-12-18T14:33:52.047Z,68499.84
2022-12-18T14:36:21.892Z,68458.28
2022-12-18T14:38:56.704Z,68405.03
2022-12-18T14:41:24.997Z,68288.25
2022-12-18T14:43:53.660Z,68087.94
2022-12-18T14:46:37.348Z,67984.75
2022-12-18T14:49:05.844Z,67867.44
2022-12-18T14:51:35.984Z,67779.16
2022-12-18T14:54:09.308Z,67687.06
2022-12-18T14:56:43.458Z,67671.00
2022-12-18T14:59:24.732Z,67625.16
2022-12-18T15:01:54.854Z,67572.81
2022-12-18T15:04:28.211Z,67426.09
2022-12-18T15:07:24.636Z,67396.28
2022-12-18T15:10:15.462Z,67382.34
2022-12-18T15:12:50.672Z,67313.00
2022-12-18T15:15:38.912Z,67266.94
2022-12-18T15:18:32.839Z,67175.44
2022-12-18T15:21:09.349Z,67144.69
2022-12-18T15:23:45.288Z,67118.72
2022-12-18T15:26:14.063Z,67091.03
2022-12-18T15:28:48.659Z,67107.06
2022-12-18T15:31:16.209Z,67089.09
2022-12-18T15:34:01.798Z,67079.72
2022-12-18T15:36:31.672Z,67065.22
2022-12-18T15:39:05.072Z,67099.59
2022-12-18T15:41:36.129Z,67108.59
2022-12-18T15:44:04.519Z,67080.88
2022-12-18T15:46:32.181Z,67062.91
2022-12-18T15:49:02.328Z,67097.88
2022-12-18T15:51:34.304Z,67032.53
2022-12-18T15:54:05.244Z,67021.63
2022-12-18T15:56:50.995Z,67049.91
2022-12-18T15:59:20.703Z,67016.28
2022-12-18T16:01:49.800Z,67095.97
2022-12-18T16:04:21.732Z,67049.75
2022-12-18T16:09:37.446Z,67052.03
2022-12-18T16:12:05.187Z,67050.88
2022-12-18T16:14:33.080Z,67017.06
2022-12-18T16:17:03.020Z,67013.81
2022-12-18T16:19:30.628Z,67039.03
2022-12-18T16:21:59.486Z,67063.66
2022-12-18T16:24:29.095Z,67041.72
2022-12-18T16:27:00.300Z,67023.00
2022-12-18T16:29:29.083Z,67070.75
2022-12-18T16:31:57.413Z,67066.34
2022-12-18T16:34:36.145Z,66998.53
2022-12-18T16:37:06.493Z,67057.38
2022-12-18T16:39:37.949Z,67058.53
2022-12-18T16:42:17.949Z,67107.63
2022-12-18T16:44:45.470Z,67078.97
2022-12-18T16:47:15.186Z,67075.13
2022-12-18T16:49:43.012Z,67054.50
2022-12-18T16:52:09.787Z,67069.59
2022-12-18T16:54:36.988Z,67039.59
2022-12-18T16:57:05.601Z,67041.69
2022-12-18T16:59:35.743Z,67083.91
2022-12-18T17:02:12.091Z,67071.13
2022-12-18T17:04:38.958Z,67052.00
2022-12-18T17:07:05.730Z,67089.84
2022-12-18T17:09:32.567Z,67039.19
2022-12-18T17:12:03.945Z,67064.22
2022-12-18T17:14:32.800Z,67013.03
2022-12-18T17:19:50.400Z,67086.22
2022-12-18T17:22:17.272Z,67114.31
2022-12-18T17:24:44.114Z,67079.53
2022-12-18T17:27:11.187Z,67091.34
2022-12-18T17:29:41.268Z,67059.63
2022-12-18T17:32:13.510Z,67047.97
2022-12-18T17:34:40.933Z,67064.59
2022-12-18T17:37:08.327Z,67079.53
2022-12-18T17:39:35.103Z,67031.38
2022-12-18T17:42:01.903Z,67071.09
2022-12-18T17:44:28.811Z,67066.31
2022-12-18T17:46:56.003Z,67050.44
2022-12-18T17:49:22.851Z,67076.25
2022-12-18T17:51:49.759Z,67072.63
2022-12-18T17:54:16.653Z,67086.00
2022-12-18T17:56:43.595Z,67072.63
2022-12-18T17:59:10.878Z,67036.31
2022-12-18T18:01:44.129Z,67048.16
2022-12-18T18:04:12.341Z,67046.63
2022-12-18T18:06:39.585Z,67059.44
2022-12-18T18:09:11.176Z,67089.25
2022-12-18T18:12:05.536Z,67091.72
2022-12-18T18:14:33.150Z,67051.59
2022-12-18T18:17:04.442Z,67089.03
2022-12-18T18:19:33.252Z,67086.00
2022-12-18T18:22:00.244Z,67059.22
2022-12-18T18:24:27.049Z,67103.19
2022-12-18T18:26:59.680Z,67067.81
2022-12-18T18:29:27.920Z,67120.94
2022-12-18T18:31:56.085Z,67042.97
2022-12-18T18:34:31.250Z,67087.50
2022-12-18T18:37:02.080Z,67066.09
2022-12-18T18:39:29.499Z,67104.69
2022-12-18T18:41:56.403Z,67156.50
2022-12-18T18:44:25.656Z,67072.59
2022-12-18T18:46:56.783Z,67108.50
2022-12-18T18:49:27.193Z,67106.41
2022-12-18T18:51:57.881Z,67054.59
2022-12-18T18:54:25.892Z,67110.81
2022-12-18T18:59:39.765Z,67092.66
2022-12-18T19:02:09.311Z,67079.44
2022-12-18T19:04:37.506Z,67074.09
2022-12-18T19:07:10.987Z,67104.69
2022-12-18T19:09:38.499Z,67043.69
2022-12-18T19:12:23.806Z,67122.28
2022-12-18T19:14:50.507Z,67098.38
2022-12-18T19:17:17.180Z,67085.19
2022-12-18T19:19:44.018Z,67126.47
2022-12-18T19:22:11.514Z,67106.59
2022-12-18T19:24:38.483Z,67104.28
2022-12-18T19:27:05.216Z,67111.38
2022-12-18T19:29:32.015Z,67100.06
2022-12-18T19:31:58.898Z,67089.38
2022-12-18T19:34:25.649Z,67111.94
2022-12-18T19:36:57.943Z,67107.72
2022-12-18T19:39:26.599Z,67123.78
2022-12-18T19:41:53.356Z,67078.47
2022-12-18T19:44:21.063Z,67117.84
2022-12-18T19:46:51.594Z,67076.75
2022-12-18T19:49:18.473Z,67125.31
2022-12-18T19:51:46.478Z,67093.97
2022-12-18T19:54:16.923Z,67114.22
2022-12-18T19:56:45.082Z,67131.44
2022-12-18T19:59:11.996Z,67112.69
2022-12-18T20:01:38.773Z,67104.66
2022-12-18T20:04:05.959Z,67146.91
2022-12-18T20:06:45.287Z,67127.81
2022-12-18T20:09:12.164Z,67144.25
2022-12-18T20:11:41.496Z,67074.81
2022-12-18T20:14:10.482Z,67146.72
2022-12-18T20:16:37.471Z,67115.19
2022-12-18T20:19:05.443Z,67101.59
2022-12-18T20:21:32.248Z,67059.91
2022-12-18T20:24:00.224Z,67119.94
2022-12-18T20:26:26.930Z,67107.16
2022-12-18T20:28:54.866Z,67132.97
2022-12-18T20:31:22.232Z,67094.31
2022-12-18T20:33:49.916Z,67116.91
2022-12-18T20:36:21.448Z,67095.47
2022-12-18T20:38:57.222Z,67102.53
2022-12-18T20:41:26.287Z,67107.31
2022-12-18T20:43:56.085Z,67082.84
2022-12-18T20:46:22.962Z,67131.03
2022-12-18T20:48:49.660Z,67091.84
2022-12-18T20:51:19.355Z,67090.47
2022-12-18T20:53:47.090Z,67154.56
2022-12-18T20:56:18.903Z,67105.78
2022-12-18T20:58:49.580Z,67115.94
2022-12-18T21:01:19.611Z,67081.31
2022-12-18T21:03:47.591Z,67101.19
2022-12-18T21:06:16.606Z,67085.13
2022-12-18T21:08:43.511Z,67098.13
2022-12-18T21:11:40.941Z,67146.31
2022-12-18T21:14:17.276Z,67120.69
2022-12-18T21:16:44.843Z,67127.19
2022-12-18T21:19:13.711Z,67141.91
2022-12-18T21:21:40.717Z,67132.56
2022-12-18T21:24:09.696Z,67083.19
2022-12-18T21:26:41.873Z,67100.59
2022-12-18T21:29:22.316Z,67114.00
2022-12-18T21:31:49.791Z,67138.66
2022-12-18T21:34:23.290Z,67087.78
2022-12-18T21:36:50.032Z,67102.31
2022-12-18T21:39:17.801Z,67135.97
2022-12-18T21:42:05.443Z,67103.84
2022-12-18T21:44:38.874Z,67125.28
2022-12-18T21:47:21.951Z,67145.19
2022-12-18T21:49:51.337Z,67150.88
2022-12-18T21:52:18.253Z,67159.69
2022-12-18T21:54:45.002Z,67131.19
2022-12-18T21:57:13.925Z,67091.22
2022-12-18T21:59:42.418Z,67140.56
2022-12-18T22:02:21.084Z,67128.31
2022-12-18T22:04:48.850Z,67146.50
2022-12-18T22:07:16.653Z,67137.50
2022-12-18T22:09:43.532Z,67111.28
2022-12-18T22:12:13.225Z,67142.84
2022-12-18T22:14:40.008Z,67138.47
2022-12-18T22:17:06.692Z,67103.44
2022-12-18T22:19:38.087Z,67153.38
2022-12-18T22:22:09.623Z,67110.91
2022-12-18T22:24:36.296Z,67127.16
2022-12-18T22:27:02.993Z,67178.22
2022-12-18T22:29:48.185Z,67137.47
2022-12-18T22:32:29.441Z,67124.09
2022-12-18T22:35:03.110Z,67126.00
2022-12-18T22:37:32.907Z,67122.94
2022-12-18T22:39:59.522Z,67203.28
2022-12-18T22:42:30.839Z,67136.13
2022-12-18T22:44:57.533Z,67118.72
2022-12-18T22:47:29.217Z,67150.28
2022-12-18T22:49:56.581Z,67125.22
2022-12-18T22:52:24.795Z,67201.38
2022-12-18T22:54:53.605Z,67165.00
2022-12-18T22:57:21.732Z,67174.00
2022-12-18T22:59:49.161Z,67153.16
2022-12-18T23:02:16.611Z,67152.19
2022-12-18T23:04:43.336Z,67230.44
2022-12-18T23:07:09.997Z,67163.47
2022-12-18T23:09:38.073Z,67143.00
2022-12-18T23:12:05.107Z,67175.16
2022-12-18T23:14:32.050Z,67130.38
2022-12-18T23:16:58.865Z,67162.50
2022-12-18T23:19:26.381Z,67156.59
2022-12-18T23:21:53.009Z,67137.09
2022-12-18T23:24:21.804Z,67137.84
2022-12-18T23:26:48.446Z,67196.38
2022-12-18T23:29:15.082Z,67158.88
2022-12-18T23:31:41.745Z,67113.34
2022-12-18T23:34:08.836Z,67186.81
2022-12-18T23:36:46.218Z,67170.16
2022-12-18T23:39:28.526Z,67186.25
2022-12-18T23:42:00.416Z,67168.44
2022-12-18T23:44:27.158Z,67185.84
2022-12-18T23:46:54.027Z,67196.38
2022-12-18T23:49:20.672Z,67139.75
2022-12-18T23:51:47.319Z,67156.94
2022-12-18T23:54:13.915Z,67126.34
2022-12-18T23:56:40.479Z,67152.75
2022-12-18T23:59:07.062Z,67213.41
